createdAt,value
2022-11-08T00:00:45.370Z,6.10
2022-11-08T00:03:13.822Z,6.10
2022-11-08T00:06:00.655Z,6.10
2022-11-08T00:08:47.540Z,6.00
2022-11-08T00:11:34.342Z,6.10
2022-11-08T00:14:02.984Z,6.10
2022-11-08T00:16:31.365Z,6.20
2022-11-08T00:18:59.979Z,5.80
2022-11-08T00:21:28.661Z,5.80
2022-11-08T00:23:57.081Z,5.80
2022-11-08T00:26:25.439Z,5.90
2022-11-08T00:28:53.943Z,5.70
2022-11-08T00:31:22.282Z,5.80
2022-11-08T00:33:50.643Z,5.80
2022-11-08T00:36:19.020Z,5.50
2022-11-08T00:38:47.359Z,5.50
2022-11-08T00:41:15.704Z,5.50
2022-11-08T00:43:44.447Z,5.50
2022-11-08T00:46:12.922Z,5.50
2022-11-08T00:48:41.265Z,5.50
2022-11-08T00:51:12.760Z,5.50
2022-11-08T00:53:41.930Z,5.50
2022-11-08T00:56:13.801Z,5.50
2022-11-08T00:58:45.245Z,5.50
2022-11-08T01:01:16.705Z,5.40
2022-11-08T01:03:45.916Z,5.50
2022-11-08T01:06:15.772Z,5.20
2022-11-08T01:08:44.627Z,5.20
2022-11-08T01:11:16.652Z,5.20
2022-11-08T01:13:45.843Z,5.30
2022-11-08T01:16:17.657Z,5.30
2022-11-08T01:18:47.214Z,5.10
2022-11-08T01:21:18.931Z,5.10
2022-11-08T01:23:47.839Z,5.10
2022-11-08T01:26:19.558Z,5.20
2022-11-08T01:28:48.809Z,4.80
2022-11-08T01:31:19.803Z,5.20
2022-11-08T01:33:51.230Z,4.90
2022-11-08T01:36:24.139Z,4.90
2022-11-08T01:38:52.937Z,4.90
2022-11-08T01:41:23.448Z,4.70
2022-11-08T01:43:57.111Z,4.80
2022-11-08T01:46:33.227Z,5.20
2022-11-08T01:49:26.351Z,5.20
2022-11-08T01:52:06.469Z,5.20
2022-11-08T01:54:42.945Z,4.90
2022-11-08T01:57:15.854Z,4.90
2022-11-08T01:59:47.427Z,5.20
2022-11-08T02:02:16.400Z,4.80
2022-11-08T02:04:45.230Z,4.90
2022-11-08T02:07:15.074Z,4.80
2022-11-08T02:09:46.242Z,4.90
2022-11-08T02:12:16.804Z,4.80
2022-11-08T02:14:45.161Z,4.80
2022-11-08T02:17:13.545Z,4.90
2022-11-08T02:19:48.545Z,4.90
2022-11-08T02:22:42.278Z,4.80
2022-11-08T02:25:10.714Z,4.80
2022-11-08T02:27:39.045Z,4.90
2022-11-08T02:30:07.837Z,4.80
2022-11-08T02:32:43.578Z,4.90
2022-11-08T02:35:19.521Z,4.90
2022-11-08T02:37:48.877Z,4.70
2022-11-08T02:40:17.341Z,4.90
2022-11-08T02:42:45.996Z,4.70
2022-11-08T02:45:14.463Z,4.70
2022-11-08T02:47:42.819Z,5.00
2022-11-08T02:50:11.562Z,5.10
2022-11-08T02:52:40.090Z,4.90
2022-11-08T02:55:08.714Z,5.20
2022-11-08T02:57:37.129Z,5.10
2022-11-08T03:00:05.768Z,5.10
2022-11-08T03:02:34.196Z,5.00
2022-11-08T03:05:02.697Z,5.20
2022-11-08T03:07:31.186Z,4.90
2022-11-08T03:09:59.616Z,5.00
2022-11-08T03:12:28.000Z,5.20
2022-11-08T03:14:56.506Z,5.10
2022-11-08T03:17:24.869Z,5.10
2022-11-08T03:19:54.482Z,5.50
2022-11-08T03:22:22.942Z,5.20
2022-11-08T03:24:51.489Z,5.50
2022-11-08T03:27:20.194Z,5.50
2022-11-08T03:29:49.135Z,5.40
2022-11-08T03:32:17.915Z,5.40
2022-11-08T03:34:46.350Z,5.70
2022-11-08T03:37:15.062Z,5.80
2022-11-08T03:39:43.398Z,5.40
2022-11-08T03:42:11.938Z,5.30
2022-11-08T03:44:40.845Z,5.20
2022-11-08T03:47:10.261Z,5.20
2022-11-08T03:49:38.593Z,5.20
2022-11-08T03:52:07.047Z,5.20
2022-11-08T03:54:35.525Z,5.30
2022-11-08T03:57:03.898Z,5.10
2022-11-08T03:59:32.326Z,5.00
2022-11-08T04:02:00.773Z,5.10
2022-11-08T04:04:29.307Z,5.20
2022-11-08T04:06:57.938Z,5.10
2022-11-08T04:09:26.355Z,5.00
2022-11-08T04:12:12.898Z,5.30
2022-11-08T04:14:59.724Z,5.20
2022-11-08T04:17:47.988Z,5.20
2022-11-08T04:20:34.543Z,5.40
2022-11-08T04:23:02.942Z,5.50
2022-11-08T04:25:34.986Z,5.50
2022-11-08T04:28:04.519Z,5.30
2022-11-08T04:30:33.158Z,5.30
2022-11-08T04:33:05.994Z,5.20
2022-11-08T04:35:34.412Z,5.30
2022-11-08T04:38:03.799Z,5.20
2022-11-08T04:40:32.851Z,5.20
2022-11-08T04:43:01.251Z,5.30
2022-11-08T04:45:29.603Z,5.30
2022-11-08T04:47:58.037Z,5.20
2022-11-08T04:50:26.365Z,5.50
2022-11-08T04:52:56.470Z,5.40
2022-11-08T04:55:25.097Z,5.50
2022-11-08T04:57:57.751Z,5.50
2022-11-08T05:00:27.153Z,5.30
2022-11-08T05:02:55.901Z,5.20
2022-11-08T05:05:24.338Z,5.10
2022-11-08T05:07:52.805Z,5.30
2022-11-08T05:10:21.202Z,5.30
2022-11-08T05:12:49.596Z,5.20
2022-11-08T05:15:18.041Z,5.40
2022-11-08T05:17:46.404Z,5.50
2022-11-08T05:20:33.433Z,5.40
2022-11-08T05:23:21.222Z,5.50
2022-11-08T05:25:49.854Z,5.50
2022-11-08T05:28:18.867Z,5.40
2022-11-08T05:30:54.179Z,5.60
2022-11-08T05:33:23.255Z,5.50
2022-11-08T05:35:51.720Z,5.50
2022-11-08T05:38:20.826Z,5.40
2022-11-08T05:40:49.632Z,5.50
2022-11-08T05:43:18.321Z,5.30
2022-11-08T05:45:47.487Z,5.50
2022-11-08T05:48:15.953Z,5.50
2022-11-08T05:50:44.657Z,5.50
2022-11-08T05:53:13.962Z,5.30
2022-11-08T05:55:42.364Z,5.50
2022-11-08T05:58:10.792Z,5.40
2022-11-08T06:00:39.324Z,5.40
2022-11-08T06:03:08.469Z,5.40
2022-11-08T06:05:36.958Z,5.40
2022-11-08T06:08:05.824Z,5.50
2022-11-08T06:10:34.261Z,5.40
2022-11-08T06:13:02.691Z,5.20
2022-11-08T06:15:31.243Z,5.20
2022-11-08T06:18:04.627Z,5.30
2022-11-08T06:20:33.200Z,5.20
2022-11-08T06:23:01.659Z,5.10
2022-11-08T06:25:30.138Z,5.20
2022-11-08T06:28:01.658Z,5.10
2022-11-08T06:30:30.294Z,5.10
2022-11-08T06:33:01.202Z,5.10
2022-11-08T06:35:29.699Z,5.20
2022-11-08T06:38:01.989Z,5.10
2022-11-08T06:40:33.186Z,4.90
2022-11-08T06:43:01.963Z,4.80
2022-11-08T06:45:30.696Z,4.90
2022-11-08T06:48:00.349Z,4.90
2022-11-08T06:50:29.634Z,4.70
2022-11-08T06:53:08.629Z,4.70
2022-11-08T06:55:37.565Z,5.20
2022-11-08T06:58:06.617Z,4.70
2022-11-08T07:00:35.162Z,4.90
2022-11-08T07:03:04.747Z,4.70
2022-11-08T07:05:36.597Z,4.90
2022-11-08T07:08:05.537Z,4.50
2022-11-08T07:10:35.844Z,4.60
2022-11-08T07:13:11.257Z,4.80
2022-11-08T07:15:40.444Z,4.70
2022-11-08T07:18:13.746Z,4.40
2022-11-08T07:20:43.286Z,4.90
2022-11-08T07:23:12.544Z,4.60
2022-11-08T07:25:41.122Z,4.90
2022-11-08T07:28:14.254Z,4.60
2022-11-08T07:30:42.744Z,4.60
2022-11-08T07:33:11.148Z,4.40
2022-11-08T07:35:39.671Z,4.90
2022-11-08T07:38:08.726Z,4.80
2022-11-08T07:40:37.061Z,4.90
2022-11-08T07:43:11.678Z,4.80
2022-11-08T07:45:41.676Z,4.80
2022-11-08T07:48:13.270Z,5.20
2022-11-08T07:50:44.977Z,4.90
2022-11-08T07:53:13.428Z,5.10
2022-11-08T07:55:42.425Z,5.20
2022-11-08T07:58:12.531Z,5.20
2022-11-08T08:00:43.058Z,5.20
2022-11-08T08:03:14.357Z,4.90
2022-11-08T08:05:45.473Z,5.10
2022-11-08T08:08:14.828Z,5.00
2022-11-08T08:10:43.723Z,5.20
2022-11-08T08:13:12.214Z,5.40
2022-11-08T08:15:40.767Z,5.50
2022-11-08T08:18:10.303Z,5.30
2022-11-08T08:20:39.894Z,5.50
2022-11-08T08:23:08.859Z,5.20
2022-11-08T08:25:37.570Z,5.20
2022-11-08T08:28:06.857Z,5.50
2022-11-08T08:30:35.321Z,5.50
2022-11-08T08:33:28.384Z,5.50
2022-11-08T08:35:56.198Z,5.50
2022-11-08T08:38:24.712Z,5.60
2022-11-08T08:40:53.343Z,5.40
2022-11-08T08:43:22.336Z,5.80
2022-11-08T08:45:51.484Z,5.50
2022-11-08T08:48:19.865Z,5.50
2022-11-08T08:50:49.025Z,5.00
2022-11-08T08:53:17.617Z,5.10
2022-11-08T08:55:46.332Z,5.20
2022-11-08T08:58:15.161Z,5.40
2022-11-08T09:03:32.951Z,5.50
2022-11-08T09:06:02.136Z,5.50
2022-11-08T09:08:31.943Z,5.50
2022-11-08T09:11:02.171Z,5.40
2022-11-08T09:13:34.200Z,5.70
2022-11-08T09:16:04.195Z,5.30
2022-11-08T09:18:33.407Z,5.60
2022-11-08T09:21:05.135Z,5.40
2022-11-08T09:23:33.958Z,5.70
2022-11-08T09:26:04.811Z,5.70
2022-11-08T09:28:35.108Z,5.50
2022-11-08T09:31:05.930Z,5.50
2022-11-08T09:33:34.420Z,5.50
2022-11-08T09:36:04.556Z,5.50
2022-11-08T09:38:33.123Z,5.50
2022-11-08T09:41:20.002Z,5.30
2022-11-08T09:44:11.501Z,5.20
2022-11-08T09:46:53.665Z,5.20
2022-11-08T09:49:32.017Z,5.50
2022-11-08T09:52:03.794Z,5.00
2022-11-08T09:54:51.645Z,5.20
2022-11-08T09:57:39.794Z,5.20
2022-11-08T10:00:08.924Z,4.90
2022-11-08T10:02:38.355Z,5.00
2022-11-08T10:05:13.534Z,5.20
2022-11-08T10:07:58.877Z,5.10
2022-11-08T10:10:46.885Z,5.40
2022-11-08T10:13:39.749Z,5.10
2022-11-08T10:16:28.286Z,5.20
2022-11-08T10:19:17.786Z,4.70
2022-11-08T10:22:00.823Z,5.10
2022-11-08T10:24:36.705Z,5.20
2022-11-08T10:27:14.593Z,4.80
2022-11-08T10:29:46.270Z,5.10
2022-11-08T10:32:25.483Z,4.80
2022-11-08T10:35:07.956Z,4.90
2022-11-08T10:37:36.388Z,4.90
2022-11-08T10:40:33.925Z,4.80
2022-11-08T10:43:51.038Z,4.60
2022-11-08T10:46:37.566Z,4.40
2022-11-08T10:49:15.436Z,4.60
2022-11-08T10:51:46.612Z,4.70
2022-11-08T10:54:53.767Z,4.40
2022-11-08T10:57:40.670Z,4.30
2022-11-08T11:00:24.232Z,4.40
2022-11-08T11:02:56.753Z,4.60
2022-11-08T11:05:30.359Z,4.60
2022-11-08T11:08:05.554Z,4.50
2022-11-08T11:10:54.372Z,4.60
2022-11-08T11:16:06.077Z,4.30
2022-11-08T11:18:38.931Z,4.30
2022-11-08T11:21:16.009Z,4.30
2022-11-08T11:23:50.583Z,4.20
2022-11-08T11:26:30.801Z,4.10
2022-11-08T11:29:08.164Z,4.30
2022-11-08T11:31:42.230Z,4.40
2022-11-08T11:34:19.699Z,4.60
2022-11-08T11:37:26.532Z,4.50
2022-11-08T11:40:04.659Z,4.40
2022-11-08T11:43:03.535Z,4.60
2022-11-08T11:46:07.348Z,4.90
2022-11-08T11:48:46.885Z,4.70
2022-11-08T11:51:15.649Z,4.70
2022-11-08T11:53:48.613Z,4.50
2022-11-08T11:56:27.691Z,4.60
2022-11-08T11:58:59.122Z,4.70
2022-11-08T12:01:48.781Z,4.80
2022-11-08T12:04:53.148Z,4.70
2022-11-08T12:07:38.446Z,4.60
2022-11-08T12:10:36.013Z,4.70
2022-11-08T12:13:34.884Z,4.70
2022-11-08T12:16:26.483Z,5.10
2022-11-08T12:19:12.240Z,5.20
2022-11-08T12:21:57.340Z,5.00
2022-11-08T12:24:58.169Z,5.10
2022-11-08T12:27:41.687Z,5.20
2022-11-08T12:30:47.126Z,4.90
2022-11-08T12:33:41.588Z,5.50
2022-11-08T12:36:17.124Z,5.50
2022-11-08T12:38:51.722Z,4.70
2022-11-08T12:41:41.124Z,5.00
2022-11-08T12:44:32.152Z,5.20
2022-11-08T12:47:18.522Z,4.80
2022-11-08T12:50:18.005Z,5.10
2022-11-08T12:53:08.179Z,4.80
2022-11-08T12:55:38.959Z,5.10
2022-11-08T12:58:37.376Z,5.20
2022-11-08T13:01:25.048Z,4.90
2022-11-08T13:04:10.609Z,4.80
2022-11-08T13:07:05.270Z,4.90
2022-11-08T13:09:52.087Z,4.70
2022-11-08T13:12:39.380Z,4.50
2022-11-08T13:15:19.019Z,4.50
2022-11-08T13:18:10.485Z,4.40
2022-11-08T13:20:42.005Z,4.50
2022-11-08T13:23:22.682Z,4.00
2022-11-08T13:25:52.537Z,4.30
2022-11-08T13:28:38.567Z,4.00
2022-11-08T13:31:32.406Z,4.00
2022-11-08T13:34:26.245Z,4.10
2022-11-08T13:37:00.937Z,3.90
2022-11-08T13:40:06.600Z,4.20
2022-11-08T13:42:35.152Z,3.80
2022-11-08T13:45:18.863Z,3.90
2022-11-08T13:47:49.232Z,4.00
2022-11-08T13:50:29.768Z,3.90
2022-11-08T13:53:20.573Z,4.00
2022-11-08T13:55:58.250Z,4.00
2022-11-08T13:58:45.042Z,3.80
2022-11-08T14:01:22.699Z,4.00
2022-11-08T14:03:51.216Z,4.00
2022-11-08T14:06:25.531Z,3.80
2022-11-08T14:09:18.515Z,3.70
2022-11-08T14:12:07.606Z,3.50
2022-11-08T14:15:08.063Z,3.50
2022-11-08T14:17:47.497Z,3.40
2022-11-08T14:20:29.909Z,3.20
2022-11-08T14:23:00.450Z,3.50
2022-11-08T14:25:36.299Z,3.70
2022-11-08T14:28:04.893Z,3.50
2022-11-08T14:30:34.372Z,3.50
2022-11-08T14:33:17.429Z,3.70
2022-11-08T14:36:01.231Z,3.40
2022-11-08T14:38:31.750Z,3.50
2022-11-08T14:41:09.024Z,3.70
2022-11-08T14:43:45.983Z,3.70
2022-11-08T14:46:16.587Z,3.50
2022-11-08T14:48:55.657Z,3.20
2022-11-08T14:51:27.081Z,3.20
2022-11-08T14:53:57.428Z,3.70
2022-11-08T14:56:28.092Z,3.60
2022-11-08T14:58:57.153Z,3.60
2022-11-08T15:01:29.133Z,3.20
2022-11-08T15:04:22.013Z,3.50
2022-11-08T15:06:54.594Z,3.20
2022-11-08T15:09:30.455Z,3.20
2022-11-08T15:12:05.544Z,3.40
2022-11-08T15:14:36.939Z,3.10
2022-11-08T15:17:05.779Z,2.90
2022-11-08T15:19:34.166Z,3.40
2022-11-08T15:22:23.293Z,3.20
2022-11-08T15:25:04.494Z,3.20
2022-11-08T15:27:32.924Z,3.30
2022-11-08T15:30:07.984Z,3.10
2022-11-08T15:32:40.977Z,3.40
2022-11-08T15:35:25.217Z,3.50
2022-11-08T15:38:00.105Z,3.50
2022-11-08T15:40:31.401Z,3.70
2022-11-08T15:43:00.885Z,3.90
2022-11-08T15:45:36.038Z,4.00
2022-11-08T15:48:10.617Z,3.90
2022-11-08T15:50:39.530Z,4.40
2022-11-08T15:53:08.185Z,4.20
2022-11-08T15:55:47.603Z,4.50
2022-11-08T15:58:41.158Z,4.30
2022-11-08T16:01:20.221Z,4.60
2022-11-08T16:03:49.388Z,4.90
2022-11-08T16:06:17.799Z,4.80
2022-11-08T16:08:46.212Z,4.90
2022-11-08T16:11:24.759Z,5.00
2022-11-08T16:13:53.273Z,5.20
2022-11-08T16:16:21.779Z,5.20
2022-11-08T16:18:50.159Z,5.30
2022-11-08T16:21:18.624Z,5.20
2022-11-08T16:23:47.019Z,5.30
2022-11-08T16:26:21.512Z,5.20
2022-11-08T16:28:49.886Z,5.60
2022-11-08T16:31:19.381Z,5.50
2022-11-08T16:33:48.261Z,5.50
2022-11-08T16:36:21.025Z,5.50
2022-11-08T16:38:56.209Z,5.80
2022-11-08T16:41:25.586Z,5.70
2022-11-08T16:43:54.142Z,5.80
2022-11-08T16:46:24.099Z,5.80
2022-11-08T16:48:59.837Z,6.10
2022-11-08T16:51:28.990Z,6.10
2022-11-08T16:53:57.808Z,6.10
2022-11-08T16:56:26.222Z,6.30
2022-11-08T16:58:54.632Z,6.40
2022-11-08T17:01:32.917Z,6.40
2022-11-08T17:04:01.394Z,6.40
2022-11-08T17:06:29.840Z,6.40
2022-11-08T17:08:58.775Z,6.40
2022-11-08T17:11:27.172Z,6.40
2022-11-08T17:13:56.051Z,6.30
2022-11-08T17:16:24.502Z,6.60
2022-11-08T17:18:54.311Z,6.40
2022-11-08T17:21:43.695Z,6.50
2022-11-08T17:24:15.739Z,6.80
2022-11-08T17:26:48.344Z,6.90
2022-11-08T17:29:16.853Z,7.00
2022-11-08T17:31:45.273Z,6.90
2022-11-08T17:34:13.747Z,6.90
2022-11-08T17:36:42.236Z,6.80
2022-11-08T17:39:14.863Z,7.10
2022-11-08T17:41:43.342Z,7.10
2022-11-08T17:44:11.773Z,7.30
2022-11-08T17:46:40.277Z,7.30
2022-11-08T17:49:10.535Z,7.10
2022-11-08T17:51:38.886Z,7.40
2022-11-08T17:54:07.285Z,7.70
2022-11-08T17:56:35.752Z,7.60
2022-11-08T17:59:04.909Z,7.60
2022-11-08T18:01:33.470Z,7.70
2022-11-08T18:04:02.271Z,7.60
2022-11-08T18:06:31.432Z,7.70
2022-11-08T18:09:00.185Z,7.80
2022-11-08T18:11:28.665Z,7.90
2022-11-08T18:13:57.086Z,8.30
2022-11-08T18:16:25.509Z,8.30
2022-11-08T18:18:54.461Z,8.20
2022-11-08T18:21:23.004Z,8.30
2022-11-08T18:23:51.449Z,8.30
2022-11-08T18:26:20.113Z,8.70
2022-11-08T18:28:48.455Z,8.40
2022-11-08T18:31:19.785Z,8.50
2022-11-08T18:33:48.983Z,8.80
2022-11-08T18:36:19.225Z,8.70
2022-11-08T18:38:48.665Z,8.70
2022-11-08T18:41:29.300Z,8.80
2022-11-08T18:43:59.523Z,8.80
2022-11-08T18:46:29.731Z,8.80
2022-11-08T18:48:58.124Z,8.70
2022-11-08T18:51:26.564Z,8.80
2022-11-08T18:53:55.265Z,8.80
2022-11-08T18:56:23.919Z,8.70
2022-11-08T18:58:52.380Z,8.80
2022-11-08T19:01:21.224Z,8.70
2022-11-08T19:03:50.055Z,8.70
2022-11-08T19:06:20.168Z,8.80
2022-11-08T19:08:48.711Z,8.80
2022-11-08T19:11:21.290Z,8.80
2022-11-08T19:13:50.390Z,8.90
2022-11-08T19:16:20.825Z,9.00
2022-11-08T19:18:50.673Z,9.10
2022-11-08T19:21:24.420Z,9.20
2022-11-08T19:23:53.667Z,9.30
2022-11-08T19:26:24.373Z,9.40
2022-11-08T19:28:55.631Z,9.30
2022-11-08T19:31:27.050Z,9.10
2022-11-08T19:33:56.123Z,9.00
2022-11-08T19:36:26.898Z,9.10
2022-11-08T19:38:56.637Z,9.00
2022-11-08T19:41:27.246Z,8.90
2022-11-08T19:43:56.041Z,9.00
2022-11-08T19:46:27.594Z,9.10
2022-11-08T19:48:56.579Z,9.20
2022-11-08T19:51:27.415Z,8.90
2022-11-08T19:53:57.435Z,9.00
2022-11-08T19:56:43.390Z,9.10
2022-11-08T19:59:15.136Z,8.90
2022-11-08T20:01:43.612Z,9.00
2022-11-08T20:04:13.060Z,8.90
2022-11-08T20:06:42.491Z,8.80
2022-11-08T20:09:11.689Z,8.90
2022-11-08T20:11:41.843Z,9.10
2022-11-08T20:14:12.490Z,8.90
2022-11-08T20:16:44.958Z,8.80
2022-11-08T20:19:17.532Z,9.00
2022-11-08T20:21:46.888Z,8.70
2022-11-08T20:24:17.410Z,9.10
2022-11-08T20:26:45.979Z,8.80
2022-11-08T20:29:15.599Z,8.80
2022-11-08T20:31:44.171Z,8.60
2022-11-08T20:34:13.624Z,8.60
2022-11-08T20:36:44.598Z,8.70
2022-11-08T20:39:15.101Z,8.90
2022-11-08T20:41:44.604Z,9.10
2022-11-08T20:44:13.083Z,9.10
2022-11-08T20:46:41.745Z,9.10
2022-11-08T20:49:10.452Z,9.20
2022-11-08T20:51:39.289Z,9.40
2022-11-08T20:54:08.428Z,9.20
2022-11-08T20:56:37.041Z,9.20
2022-11-08T20:59:05.505Z,9.10
2022-11-08T21:01:35.006Z,9.00
2022-11-08T21:04:03.819Z,9.20
2022-11-08T21:06:35.879Z,9.10
2022-11-08T21:09:30.001Z,9.10
2022-11-08T21:11:54.722Z,8.90
2022-11-08T21:14:24.552Z,9.00
2022-11-08T21:17:20.335Z,9.20
2022-11-08T21:19:42.352Z,9.10
2022-11-08T21:22:16.609Z,8.90
2022-11-08T21:24:48.868Z,8.90
2022-11-08T21:27:18.335Z,9.10
2022-11-08T21:29:46.802Z,8.90
2022-11-08T21:32:15.522Z,8.80
2022-11-08T21:34:46.586Z,8.70
2022-11-08T21:37:15.338Z,9.00
2022-11-08T21:39:43.931Z,8.90
2022-11-08T21:42:12.392Z,8.80
2022-11-08T21:44:40.793Z,8.70
2022-11-08T21:47:09.253Z,8.80
2022-11-08T21:49:37.650Z,8.80
2022-11-08T21:52:06.430Z,8.80
2022-11-08T21:54:34.978Z,8.70
2022-11-08T21:57:03.635Z,8.80
2022-11-08T21:59:33.145Z,8.70
2022-11-08T22:02:01.639Z,8.70
2022-11-08T22:04:30.188Z,8.80
2022-11-08T22:06:58.740Z,8.60
2022-11-08T22:09:27.396Z,8.60
2022-11-08T22:11:56.162Z,8.80
2022-11-08T22:14:24.600Z,8.60
2022-11-08T22:16:53.137Z,8.30
2022-11-08T22:19:21.619Z,8.70
2022-11-08T22:21:51.219Z,8.50
2022-11-08T22:24:21.776Z,8.40
2022-11-08T22:26:51.580Z,8.40
2022-11-08T22:29:21.456Z,8.40
2022-11-08T22:31:50.240Z,8.40
2022-11-08T22:34:20.485Z,8.30
2022-11-08T22:36:51.789Z,8.50
2022-11-08T22:39:22.779Z,8.30
2022-11-08T22:41:53.928Z,8.40
2022-11-08T22:44:24.008Z,8.40
2022-11-08T22:46:52.452Z,8.50
2022-11-08T22:49:22.035Z,8.20
2022-11-08T22:51:51.644Z,8.20
2022-11-08T22:54:20.146Z,8.20
2022-11-08T22:56:50.442Z,8.60
2022-11-08T22:59:19.978Z,8.40
2022-11-08T23:01:49.599Z,8.40
2022-11-08T23:04:18.536Z,8.10
2022-11-08T23:06:47.066Z,8.20
2022-11-08T23:09:16.667Z,8.30
2022-11-08T23:12:03.551Z,8.40
2022-11-08T23:14:51.299Z,8.40
2022-11-08T23:17:19.768Z,8.10
2022-11-08T23:20:07.509Z,8.40
2022-11-08T23:22:54.333Z,8.40
2022-11-08T23:25:23.193Z,8.00
2022-11-08T23:28:09.716Z,7.90
2022-11-08T23:30:56.719Z,7.80
2022-11-08T23:33:26.376Z,8.10
2022-11-08T23:36:12.910Z,8.00
2022-11-08T23:38:42.820Z,8.00
2022-11-08T23:41:31.860Z,7.80
2022-11-08T23:44:18.965Z,8.10
2022-11-08T23:46:47.403Z,7.90
2022-11-08T23:49:18.347Z,8.00
2022-11-08T23:51:48.090Z,7.70
2022-11-08T23:54:17.949Z,7.60
2022-11-08T23:56:47.013Z,7.90
2022-11-08T23:59:17.046Z,7.90
